Latest Weather Observations for Colpoys Point

IDW60901

Issued at 9:41 am WST Sunday 28 November 2021 (issued every 10 minutes, with the page automatically refreshed every 10 minutes)

About weather observations | Map of Perth area stations | Latest observations for Perth area | Other Formats
Station Details ID: 009255 Name: COLPOYS POINT Lat: -32.23 Lon: 115.70 Height: 3.0 m
Data from the previous 72 hours. | See also: Recent months for locations in Western Australia
Date/Time
WST
Temp
°C
App
Temp
°C
Dew
Point
°C
Rel
Hum
%
Delta-T
°C
Wind Press
QNH
hPa
Press
MSL
hPa
Rain since
9am
mm
Dir  Spd
km/h
Gust
km/h
Spd
kts
Gust
kts
28/09:30am - - - - - SW 9 11 5 6 - - -
28/09:00am - - - - - WSW 15 24 8 13 - - -
28/08:30am - - - - - WSW 13 17 7 9 - - -
28/08:00am - - - - - SSW 7 9 4 5 - - -
28/07:30am - - - - - SSW 6 7 3 4 - - -
28/07:00am - - - - - S 9 13 5 7 - - -
28/06:30am - - - - - SW 13 26 7 14 - - -
28/06:00am - - - - - WSW 15 28 8 15 - - -
28/05:30am - - - - - CALM 0 6 0 3 - - -
28/05:00am - - - - - WSW 2 7 1 4 - - -
28/04:30am - - - - - CALM 0 2 0 1 - - -
28/04:00am - - - - - SW 6 7 3 4 - - -
28/03:30am - - - - - SSW 7 9 4 5 - - -
28/03:00am - - - - - SW 11 15 6 8 - - -
28/02:30am - - - - - SSW 15 20 8 11 - - -
28/02:00am - - - - - SW 17 20 9 11 - - -
28/01:30am - - - - - SW 13 15 7 8 - - -
28/01:00am - - - - - S 13 15 7 8 - - -
28/12:30am - - - - - WSW 13 19 7 10 - - -
28/12:00am - - - - - SW 7 11 4 6 - - -
 
Date/Time
WST
Temp
°C
App
Temp
°C
Dew
Point
°C
Rel
Hum
%
Delta-T
°C
Wind Press
QNH
hPa
Press
MSL
hPa
Rain since
9am
mm
Dir  Spd
km/h
Gust
km/h
Spd
kts
Gust
kts
27/11:30pm - - - - - SE 6 7 3 4 - - -
27/11:00pm - - - - - SSE 6 6 3 3 - - -
27/10:30pm - - - - - S 7 7 4 4 - - -
27/10:00pm - - - - - S 7 9 4 5 - - -
27/09:30pm - - - - - SSE 13 13 7 7 - - -
27/09:00pm - - - - - S 15 15 8 8 - - -
27/08:30pm - - - - - S 15 15 8 8 - - -
27/08:00pm - - - - - S 17 19 9 10 - - -
27/07:30pm - - - - - S 20 24 11 13 - - -
27/07:00pm - - - - - S 15 17 8 9 - - -
27/06:30pm - - - - - S 20 22 11 12 - - -
27/06:00pm - - - - - SSW 17 20 9 11 - - -
27/05:30pm - - - - - SSW 17 20 9 11 - - -
27/05:00pm - - - - - SW 13 17 7 9 - - -
27/04:30pm - - - - - SSW 13 17 7 9 - - -
27/04:00pm - - - - - SSW 15 19 8 10 - - -
27/03:30pm - - - - - SSW 17 19 9 10 - - -
27/03:00pm - - - - - SSW 26 28 14 15 - - -
27/02:30pm - - - - - SSW 20 26 11 14 - - -
27/02:00pm - - - - - SW 19 22 10 12 - - -
27/01:30pm - - - - - SW 17 20 9 11 - - -
27/01:00pm - - - - - SSW 15 19 8 10 - - -
27/12:30pm - - - - - S 6 7 3 4 - - -
27/12:00pm - - - - - N 9 13 5 7 - - -
27/11:30am - - - - - N 7 9 4 5 - - -
27/11:00am - - - - - N 9 11 5 6 - - -
27/10:30am - - - - - NE 9 11 5 6 - - -
27/10:00am - - - - - NE 11 15 6 8 - - -
27/09:30am - - - - - ENE 15 19 8 10 - - -
27/09:00am - - - - - ENE 13 17 7 9 - - -
27/08:30am - - - - - ENE 15 17 8 9 - - -
27/08:00am - - - - - NE 11 15 6 8 - - -
27/07:30am - - - - - ENE 20 26 11 14 - - -
27/07:00am - - - - - ENE 20 26 11 14 - - -
27/06:30am - - - - - ENE 9 13 5 7 - - -
27/06:00am - - - - - E 11 13 6 7 - - -
27/05:30am - - - - - E 15 19 8 10 - - -
27/05:00am - - - - - ESE 13 15 7 8 - - -
27/04:30am - - - - - ESE 13 15 7 8 - - -
27/04:00am - - - - - ESE 13 15 7 8 - - -
27/03:30am - - - - - E 19 22 10 12 - - -
27/03:00am - - - - - E 20 24 11 13 - - -
27/02:30am - - - - - ESE 9 13 5 7 - - -
27/02:00am - - - - - SSE 9 11 5 6 - - -
27/01:30am - - - - - SSE 11 11 6 6 - - -
27/01:00am - - - - - SSE 11 13 6 7 - - -
27/12:30am - - - - - S 11 13 6 7 - - -
27/12:00am - - - - - S 11 13 6 7 - - -
 
Date/Time
WST
Temp
°C
App
Temp
°C
Dew
Point
°C
Rel
Hum
%
Delta-T
°C
Wind Press
QNH
hPa
Press
MSL
hPa
Rain since
9am
mm
Dir  Spd
km/h
Gust
km/h
Spd
kts
Gust
kts
26/11:30pm - - - - - S 13 17 7 9 - - -
26/11:00pm - - - - - SSW 15 15 8 8 - - -
26/10:30pm - - - - - SSW 15 17 8 9 - - -
26/10:00pm - - - - - SSW 20 22 11 12 - - -
26/09:30pm - - - - - S 19 20 10 11 - - -
26/09:00pm - - - - - S 17 19 9 10 - - -
26/08:30pm - - - - - S 17 20 9 11 - - -
26/08:00pm - - - - - S 24 30 13 16 - - -
26/07:30pm - - - - - SSW 30 33 16 18 - - -
26/07:00pm - - - - - SSW 33 37 18 20 - - -
26/06:30pm - - - - - SSW 33 39 18 21 - - -
26/06:00pm - - - - - SSW 32 37 17 20 - - -
26/05:30pm - - - - - S 33 39 18 21 - - -
26/05:00pm - - - - - SSW 32 37 17 20 - - -
26/04:30pm - - - - - SSW 33 39 18 21 - - -
26/04:00pm - - - - - SSW 35 39 19 21 - - -
26/03:30pm - - - - - SSW 35 41 19 22 - - -
26/03:00pm - - - - - SW 30 35 16 19 - - -
26/02:30pm - - - - - SW 30 35 16 19 - - -
26/02:00pm - - - - - SSW 24 33 13 18 - - -
26/01:30pm - - - - - SW 24 32 13 17 - - -
26/01:00pm - - - - - SW 17 24 9 13 - - -
26/12:30pm - - - - - WSW 17 20 9 11 - - -
26/12:00pm - - - - - SW 13 15 7 8 - - -
26/11:30am - - - - - NNE 6 9 3 5 - - -
26/11:00am - - - - - N 7 9 4 5 - - -
26/10:30am - - - - - ENE 6 7 3 4 - - -
26/10:00am - - - - - ESE 9 11 5 6 - - -
26/09:30am - - - - - ESE 13 17 7 9 - - -
26/09:00am - - - - - SE 15 17 8 9 - - -
26/08:30am - - - - - ESE 15 17 8 9 - - -
26/08:00am - - - - - ESE 17 20 9 11 - - -
26/07:30am - - - - - ESE 17 20 9 11 - - -
26/07:00am - - - - - E 22 26 12 14 - - -
26/06:30am - - - - - E 19 24 10 13 - - -
26/06:00am - - - - - E 22 26 12 14 - - -
26/05:30am - - - - - E 20 26 11 14 - - -
26/05:00am - - - - - E 24 28 13 15 - - -
26/04:30am - - - - - E 24 30 13 16 - - -
26/04:00am - - - - - E 24 30 13 16 - - -
26/03:30am - - - - - E 22 30 12 16 - - -
26/03:00am - - - - - E 19 26 10 14 - - -
26/02:30am - - - - - E 17 22 9 12 - - -
26/02:00am - - - - - ESE 15 17 8 9 - - -
26/01:30am - - - - - ESE 17 20 9 11 - - -
26/01:00am - - - - - ESE 17 20 9 11 - - -
26/12:30am - - - - - ESE 19 26 10 14 - - -
26/12:00am - - - - - SSE 15 17 8 9 - - -
 
Date/Time
WST
Temp
°C
App
Temp
°C
Dew
Point
°C
Rel
Hum
%
Delta-T
°C
Wind Press
QNH
hPa
Press
MSL
hPa
Rain since
9am
mm
Dir  Spd
km/h
Gust
km/h
Spd
kts
Gust
kts
25/11:30pm - - - - - S 17 19 9 10 - - -
25/11:00pm - - - - - S 13 15 7 8 - - -
25/10:30pm - - - - - S 13 15 7 8 - - -
25/10:00pm - - - - - S 11 13 6 7 - - -
25/09:30pm - - - - - S 17 19 9 10 - - -
25/09:00pm - - - - - SSW 24 26 13 14 - - -
25/08:30pm - - - - - SSW 30 35 16 19 - - -
25/08:00pm - - - - - SSW 30 33 16 18 - - -
25/07:30pm - - - - - SSW 28 33 15 18 - - -
25/07:00pm - - - - - SSW 28 33 15 18 - - -
25/06:30pm - - - - - SSW 30 35 16 19 - - -
25/06:00pm - - - - - SSW 26 32 14 17 - - -
25/05:30pm - - - - - SSW 30 35 16 19 - - -
25/05:00pm - - - - - SSW 33 39 18 21 - - -
25/04:30pm - - - - - SSW 32 39 17 21 - - -
25/04:00pm - - - - - SW 30 37 16 20 - - -
25/03:30pm - - - - - SW 30 35 16 19 - - -
25/03:00pm - - - - - SW 28 33 15 18 - - -
25/02:30pm - - - - - SSW 28 33 15 18 - - -
25/02:00pm - - - - - SW 26 32 14 17 - - -
25/01:30pm - - - - - SW 24 28 13 15 - - -
25/01:00pm - - - - - SW 26 30 14 16 - - -
25/12:30pm - - - - - SW 20 26 11 14 - - -
25/12:00pm - - - - - SW 7 9 4 5 - - -
25/11:30am - - - - - E 6 7 3 4 - - -
25/11:00am - - - - - ESE 11 13 6 7 - - -
25/10:30am - - - - - E 13 17 7 9 - - -
25/10:00am - - - - - E 17 24 9 13 - - -

Latest Capital City Observations: Canberra | Sydney | Melbourne | Brisbane | Adelaide | Perth | Hobart | Darwin

Other formats

Comma delimited format used in spreadsheet applications
http://www.bom.gov.au/fwo/IDW60901/IDW60901.99255.axf

JavaScript Object Notation format (JSON) in row-major order
http://www.bom.gov.au/fwo/IDW60901/IDW60901.99255.json

Data quality

Most of these data are generated automatically and are frequently updated. Quality checks on data are not normally performed. It is possible for incorrect values to appear. Refer to information at About Latest Weather Observations and please check the disclaimer before using these data.